createdAt,value
2023-09-27T00:00:09.793Z,78.50
2023-09-27T00:02:40.746Z,78.60
2023-09-27T00:05:11.385Z,78.80
2023-09-27T00:07:42.084Z,78.40
2023-09-27T00:10:11.414Z,78.70
2023-09-27T00:12:39.952Z,79.20
2023-09-27T00:15:09.436Z,78.60
2023-09-27T00:17:37.113Z,78.40
2023-09-27T00:20:06.991Z,78.30
2023-09-27T00:22:34.327Z,78.00
2023-09-27T00:25:02.221Z,77.70
2023-09-27T00:27:29.516Z,76.60
2023-09-27T00:29:56.861Z,76.20
2023-09-27T00:32:24.313Z,77.20
2023-09-27T00:34:51.725Z,77.60
2023-09-27T00:37:18.987Z,78.30
2023-09-27T00:39:46.304Z,78.40
2023-09-27T00:42:14.119Z,78.50
2023-09-27T00:44:41.898Z,78.40
2023-09-27T00:47:09.318Z,78.30
2023-09-27T00:49:37.516Z,78.00
2023-09-27T00:52:05.960Z,77.70
2023-09-27T00:54:35.455Z,78.10
2023-09-27T00:57:04.818Z,78.20
2023-09-27T00:59:32.494Z,78.80
2023-09-27T01:02:00.145Z,79.60
2023-09-27T01:04:27.706Z,79.80
2023-09-27T01:06:55.175Z,79.80
2023-09-27T01:09:22.945Z,80.00
2023-09-27T01:11:50.473Z,79.70
2023-09-27T01:14:18.016Z,79.80
2023-09-27T01:16:45.380Z,80.00
2023-09-27T01:19:13.798Z,79.80
2023-09-27T01:21:41.157Z,80.00
2023-09-27T01:24:10.731Z,79.80
2023-09-27T01:26:38.849Z,79.30
2023-09-27T01:29:07.333Z,79.20
2023-09-27T01:31:35.368Z,78.50
2023-09-27T01:34:02.660Z,78.60
2023-09-27T01:36:30.192Z,78.60
2023-09-27T01:38:57.481Z,78.60
2023-09-27T01:41:24.818Z,78.90
2023-09-27T01:43:52.942Z,79.30
2023-09-27T01:46:20.312Z,78.10
2023-09-27T01:48:49.299Z,78.40
2023-09-27T01:51:16.658Z,78.80
2023-09-27T01:53:44.006Z,79.40
2023-09-27T01:56:11.403Z,79.60
2023-09-27T01:58:38.785Z,80.10
2023-09-27T02:01:06.157Z,80.30
2023-09-27T02:03:34.058Z,80.50
2023-09-27T02:06:02.268Z,80.00
2023-09-27T02:08:29.697Z,80.00
2023-09-27T02:10:57.028Z,80.20
2023-09-27T02:13:24.327Z,80.70
2023-09-27T02:15:51.630Z,81.10
2023-09-27T02:18:18.971Z,81.00
2023-09-27T02:20:46.812Z,80.70
2023-09-27T02:23:14.145Z,80.70
2023-09-27T02:25:41.567Z,80.60
2023-09-27T02:28:09.446Z,80.80
2023-09-27T02:30:36.870Z,80.90
2023-09-27T02:33:04.336Z,81.40
2023-09-27T02:35:31.680Z,81.60
2023-09-27T02:37:59.115Z,81.60
2023-09-27T02:40:26.548Z,81.90
2023-09-27T02:42:55.013Z,82.10
2023-09-27T02:45:22.415Z,82.20
2023-09-27T02:47:49.737Z,82.30
2023-09-27T02:50:17.365Z,82.80
2023-09-27T02:52:45.383Z,82.90
2023-09-27T02:55:13.432Z,83.00
2023-09-27T02:57:41.078Z,82.90
2023-09-27T03:00:09.674Z,83.10
2023-09-27T03:02:38.395Z,82.90
2023-09-27T03:05:08.636Z,82.40
2023-09-27T03:07:36.275Z,82.50
2023-09-27T03:10:05.684Z,83.40
2023-09-27T03:12:33.651Z,83.70
2023-09-27T03:15:01.066Z,82.90
2023-09-27T03:17:28.768Z,81.60
2023-09-27T03:19:56.332Z,81.90
2023-09-27T03:22:23.679Z,81.70
2023-09-27T03:24:52.224Z,81.90
2023-09-27T03:27:19.886Z,82.10
2023-09-27T03:29:48.054Z,82.30
2023-09-27T03:32:15.470Z,82.70
2023-09-27T03:34:42.779Z,83.00
2023-09-27T03:37:10.802Z,82.50
2023-09-27T03:39:38.206Z,82.00
2023-09-27T03:42:05.893Z,82.10
2023-09-27T03:44:35.015Z,82.10
2023-09-27T03:47:04.247Z,82.40
2023-09-27T03:49:31.672Z,82.20
2023-09-27T03:51:59.163Z,82.20
2023-09-27T03:54:26.860Z,82.30
2023-09-27T03:56:55.480Z,82.00
2023-09-27T03:59:23.689Z,82.40
2023-09-27T04:01:52.468Z,82.50
2023-09-27T04:04:20.090Z,82.70
2023-09-27T04:06:47.462Z,82.70
2023-09-27T04:09:15.121Z,82.70
2023-09-27T04:11:42.529Z,82.80
2023-09-27T04:14:10.068Z,83.40
2023-09-27T04:16:37.347Z,83.40
2023-09-27T04:19:04.974Z,83.50
2023-09-27T04:21:32.483Z,83.10
2023-09-27T04:24:00.906Z,83.20
2023-09-27T04:26:28.467Z,83.10
2023-09-27T04:28:55.894Z,83.10
2023-09-27T04:31:23.332Z,82.90
2023-09-27T04:34:02.730Z,83.00
2023-09-27T04:36:31.963Z,82.90
2023-09-27T04:38:59.486Z,82.90
2023-09-27T04:41:26.878Z,83.40
2023-09-27T04:43:54.274Z,83.40
2023-09-27T04:46:21.596Z,83.30
2023-09-27T04:48:48.933Z,83.90
2023-09-27T04:51:16.273Z,83.80
2023-09-27T04:53:43.678Z,83.80
2023-09-27T04:56:13.930Z,84.00
2023-09-27T04:58:44.145Z,84.10
2023-09-27T05:01:12.207Z,84.20
2023-09-27T05:03:40.200Z,84.20
2023-09-27T05:06:08.152Z,84.40
2023-09-27T05:08:35.632Z,84.10
2023-09-27T05:11:03.146Z,84.00
2023-09-27T05:13:30.640Z,84.10
2023-09-27T05:15:58.009Z,83.70
2023-09-27T05:18:25.497Z,84.00
2023-09-27T05:20:52.968Z,83.80
2023-09-27T05:23:20.327Z,83.80
2023-09-27T05:25:48.328Z,84.10
2023-09-27T05:28:16.553Z,83.80
2023-09-27T05:30:44.152Z,83.20
2023-09-27T05:33:11.532Z,83.40
2023-09-27T05:35:38.888Z,84.00
2023-09-27T05:38:06.318Z,83.70
2023-09-27T05:40:33.759Z,83.60
2023-09-27T05:43:03.046Z,83.80
2023-09-27T05:45:30.397Z,83.50
2023-09-27T05:47:57.831Z,83.90
2023-09-27T05:50:25.267Z,84.10
2023-09-27T05:52:53.144Z,84.40
2023-09-27T05:55:21.254Z,84.30
2023-09-27T05:57:50.906Z,84.10
2023-09-27T06:00:27.801Z,83.80
2023-09-27T06:02:55.644Z,83.50
2023-09-27T06:05:23.485Z,83.70
2023-09-27T06:07:51.055Z,83.40
2023-09-27T06:10:18.624Z,83.40
2023-09-27T06:12:46.028Z,83.00
2023-09-27T06:15:14.145Z,83.00
2023-09-27T06:17:43.351Z,82.60
2023-09-27T06:20:17.256Z,82.20
2023-09-27T06:22:46.796Z,82.40
2023-09-27T06:25:14.982Z,82.60
2023-09-27T06:27:43.891Z,83.30
2023-09-27T06:30:12.873Z,83.20
2023-09-27T06:32:40.313Z,82.70
2023-09-27T06:35:13.953Z,82.50
2023-09-27T06:37:44.838Z,82.40
2023-09-27T06:40:17.722Z,82.50
2023-09-27T06:42:46.649Z,82.30
2023-09-27T06:45:14.889Z,81.80
2023-09-27T06:47:43.520Z,81.50
2023-09-27T06:50:11.371Z,81.30
2023-09-27T06:52:41.026Z,81.10
2023-09-27T06:55:13.051Z,81.20
2023-09-27T06:57:53.418Z,80.80
2023-09-27T07:00:25.287Z,80.90
2023-09-27T07:02:53.630Z,80.90
2023-09-27T07:05:25.039Z,80.80
2023-09-27T07:07:54.350Z,80.70
2023-09-27T07:10:24.167Z,81.00
2023-09-27T07:12:51.577Z,80.40
2023-09-27T07:15:20.296Z,79.10
2023-09-27T07:17:50.019Z,78.60
2023-09-27T07:20:35.620Z,78.20
2023-09-27T07:23:07.682Z,78.10
2023-09-27T07:25:38.688Z,78.40
2023-09-27T07:28:07.352Z,78.40
2023-09-27T07:30:35.298Z,78.40
2023-09-27T07:33:12.945Z,78.90
2023-09-27T07:35:45.304Z,78.80
2023-09-27T07:38:13.032Z,78.50
2023-09-27T07:40:40.597Z,78.00
2023-09-27T07:43:08.013Z,77.00
2023-09-27T07:45:37.708Z,77.10
2023-09-27T07:48:05.613Z,75.50
2023-09-27T07:50:35.390Z,75.00
2023-09-27T07:53:07.486Z,75.40
2023-09-27T07:55:44.320Z,75.30
2023-09-27T07:58:13.858Z,75.70
2023-09-27T08:00:42.117Z,73.70
2023-09-27T08:03:10.099Z,72.40
2023-09-27T08:05:47.648Z,73.60
2023-09-27T08:08:15.528Z,72.90
2023-09-27T08:10:48.343Z,73.20
2023-09-27T08:13:17.315Z,72.00
2023-09-27T08:15:48.036Z,71.60
2023-09-27T08:18:16.738Z,73.20
2023-09-27T08:20:44.458Z,72.60
2023-09-27T08:23:12.620Z,73.30
2023-09-27T08:25:40.245Z,72.70
2023-09-27T08:28:08.005Z,72.80
2023-09-27T08:30:35.535Z,73.40
2023-09-27T08:33:03.295Z,73.00
2023-09-27T08:35:31.360Z,73.00
2023-09-27T08:37:59.068Z,72.30
2023-09-27T08:40:26.956Z,72.40
2023-09-27T08:42:59.342Z,72.60
2023-09-27T08:45:28.298Z,73.00
2023-09-27T08:47:56.056Z,71.70
2023-09-27T08:50:25.778Z,71.60
2023-09-27T08:52:53.512Z,70.80
2023-09-27T08:55:21.308Z,71.00
2023-09-27T08:57:51.232Z,70.70
2023-09-27T09:00:22.894Z,69.90
2023-09-27T09:02:58.544Z,69.10
2023-09-27T09:05:29.189Z,68.40
2023-09-27T09:07:58.282Z,67.50
2023-09-27T09:10:25.623Z,68.00
2023-09-27T09:12:53.434Z,67.90
2023-09-27T09:15:48.417Z,66.10
2023-09-27T09:18:30.149Z,66.70
2023-09-27T09:21:00.937Z,66.90
2023-09-27T09:23:35.965Z,66.40
2023-09-27T09:26:11.102Z,66.40
2023-09-27T09:28:58.679Z,64.80
2023-09-27T09:31:28.605Z,64.60
2023-09-27T09:34:12.095Z,64.20
2023-09-27T09:36:39.516Z,64.40
2023-09-27T09:39:18.496Z,64.90
2023-09-27T09:41:50.765Z,63.30
2023-09-27T09:44:23.175Z,61.40
2023-09-27T09:46:52.984Z,61.90
2023-09-27T09:49:21.775Z,61.00
2023-09-27T09:51:51.179Z,60.30
2023-09-27T09:54:29.503Z,60.20
2023-09-27T09:57:10.077Z,59.50
2023-09-27T09:59:57.346Z,59.60
2023-09-27T10:02:28.835Z,59.10
2023-09-27T10:05:00.238Z,58.60
2023-09-27T10:07:29.973Z,59.40
2023-09-27T10:09:58.402Z,60.00
2023-09-27T10:12:27.410Z,57.90
2023-09-27T10:14:55.565Z,57.00
2023-09-27T10:17:24.464Z,56.80
2023-09-27T10:20:14.105Z,57.20
2023-09-27T10:22:44.453Z,56.90
2023-09-27T10:25:28.088Z,55.60
2023-09-27T10:28:09.484Z,55.00
2023-09-27T10:30:42.686Z,54.90
2023-09-27T10:33:16.259Z,55.10
2023-09-27T10:35:43.813Z,55.10
2023-09-27T10:38:12.295Z,55.40
2023-09-27T10:40:47.182Z,55.80
2023-09-27T10:43:36.478Z,56.00
2023-09-27T10:46:05.629Z,56.10
2023-09-27T10:48:33.319Z,55.80
2023-09-27T10:51:00.996Z,53.70
2023-09-27T10:53:28.418Z,54.60
2023-09-27T10:55:56.025Z,54.50
2023-09-27T10:58:23.311Z,56.50
2023-09-27T11:00:52.491Z,57.20
2023-09-27T11:03:20.482Z,57.00
2023-09-27T11:05:48.822Z,57.30
2023-09-27T11:08:26.312Z,55.70
2023-09-27T11:10:57.107Z,57.00
2023-09-27T11:13:25.483Z,56.10
2023-09-27T11:15:53.118Z,54.30
2023-09-27T11:18:20.694Z,53.80
2023-09-27T11:20:48.375Z,53.10
2023-09-27T11:23:15.809Z,51.00
2023-09-27T11:25:44.818Z,51.30
2023-09-27T11:28:18.513Z,50.00
2023-09-27T11:30:46.037Z,50.50
2023-09-27T11:33:18.042Z,51.00
2023-09-27T11:35:50.524Z,52.20
2023-09-27T11:38:18.012Z,52.90
2023-09-27T11:40:46.307Z,53.60
2023-09-27T11:43:14.116Z,55.50
2023-09-27T11:45:46.524Z,55.00
2023-09-27T11:48:14.784Z,56.10
2023-09-27T11:50:42.368Z,56.10
2023-09-27T11:53:10.010Z,56.30
2023-09-27T11:55:37.659Z,56.40
2023-09-27T11:58:04.973Z,54.00
2023-09-27T12:00:33.255Z,53.80
2023-09-27T12:03:00.801Z,53.30
2023-09-27T12:05:28.982Z,52.60
2023-09-27T12:07:56.689Z,52.50
2023-09-27T12:10:24.183Z,51.20
2023-09-27T12:12:51.541Z,51.40
2023-09-27T12:15:18.956Z,50.20
2023-09-27T12:17:46.359Z,49.90
2023-09-27T12:20:32.055Z,49.70
2023-09-27T12:23:05.086Z,48.90
2023-09-27T12:25:34.396Z,48.90
2023-09-27T12:28:02.429Z,48.00
2023-09-27T12:30:29.678Z,46.20
2023-09-27T12:32:57.244Z,46.70
2023-09-27T12:35:24.794Z,44.70
2023-09-27T12:37:52.202Z,44.50
2023-09-27T12:40:19.657Z,45.50
2023-09-27T12:42:47.081Z,44.30
2023-09-27T12:45:14.645Z,44.00
2023-09-27T12:47:42.783Z,45.40
2023-09-27T12:50:10.477Z,43.80
2023-09-27T12:52:38.215Z,43.70
2023-09-27T12:55:06.545Z,42.40
2023-09-27T12:57:34.143Z,42.10
2023-09-27T13:00:02.214Z,43.50
2023-09-27T13:02:32.508Z,42.70
2023-09-27T13:05:00.112Z,41.10
2023-09-27T13:07:28.315Z,42.10
2023-09-27T13:09:55.756Z,41.00
2023-09-27T13:12:23.095Z,40.30
2023-09-27T13:14:50.585Z,41.00
2023-09-27T13:17:18.095Z,41.40
2023-09-27T13:19:46.000Z,42.90
2023-09-27T13:22:13.353Z,42.40
2023-09-27T13:24:42.901Z,40.90
2023-09-27T13:27:10.572Z,40.00
2023-09-27T13:29:40.452Z,38.10
2023-09-27T13:32:07.898Z,37.50
2023-09-27T13:34:36.938Z,36.70
2023-09-27T13:37:04.296Z,39.20
2023-09-27T13:39:31.737Z,39.20
2023-09-27T13:41:59.118Z,38.40
2023-09-27T13:44:27.880Z,39.60
2023-09-27T13:46:55.366Z,40.00
2023-09-27T13:49:22.840Z,40.70
2023-09-27T13:51:50.159Z,41.50
2023-09-27T13:54:17.526Z,41.90
2023-09-27T13:56:44.931Z,43.10
2023-09-27T13:59:12.299Z,43.40
2023-09-27T14:01:40.173Z,42.70
2023-09-27T14:04:08.693Z,42.00
2023-09-27T14:06:36.068Z,38.30
2023-09-27T14:09:03.707Z,36.30
2023-09-27T14:11:31.188Z,35.40
2023-09-27T14:13:58.579Z,35.90
2023-09-27T14:16:26.542Z,35.80
2023-09-27T14:18:54.184Z,35.00
2023-09-27T14:21:21.915Z,35.30
2023-09-27T14:23:50.084Z,35.60
2023-09-27T14:26:20.365Z,35.80
2023-09-27T14:28:48.029Z,36.50
2023-09-27T14:31:18.027Z,33.80
2023-09-27T14:33:45.728Z,32.70
2023-09-27T14:36:13.483Z,32.20
2023-09-27T14:38:40.952Z,32.10
2023-09-27T14:41:11.360Z,31.70
2023-09-27T14:43:40.216Z,30.70
2023-09-27T14:46:12.115Z,30.50
2023-09-27T14:48:40.446Z,30.60
2023-09-27T14:51:12.951Z,31.80
2023-09-27T14:53:42.340Z,31.90
2023-09-27T14:56:10.880Z,30.90
2023-09-27T14:58:38.577Z,31.00
2023-09-27T15:01:06.250Z,32.70
2023-09-27T15:03:34.516Z,33.90
2023-09-27T15:06:06.829Z,32.20
2023-09-27T15:08:34.936Z,31.40
2023-09-27T15:11:04.316Z,31.00
2023-09-27T15:13:32.703Z,31.60
2023-09-27T15:16:02.310Z,31.40
2023-09-27T15:18:30.639Z,32.20
2023-09-27T15:20:58.172Z,32.50
2023-09-27T15:23:26.677Z,32.50
2023-09-27T15:25:54.176Z,32.70
2023-09-27T15:28:21.636Z,32.40
2023-09-27T15:30:49.286Z,32.80
2023-09-27T15:33:16.801Z,32.70
2023-09-27T15:35:57.445Z,32.10
2023-09-27T15:38:28.135Z,32.80
2023-09-27T15:40:56.078Z,33.70
2023-09-27T15:43:23.782Z,34.80
2023-09-27T15:46:04.095Z,35.20
2023-09-27T15:48:34.895Z,35.00
2023-09-27T15:51:11.578Z,35.00
2023-09-27T15:53:39.634Z,36.70
2023-09-27T15:56:08.852Z,37.90
2023-09-27T15:58:36.507Z,39.20
2023-09-27T16:01:05.347Z,40.10
2023-09-27T16:03:33.462Z,40.90
2023-09-27T16:06:03.719Z,41.60
2023-09-27T16:08:33.278Z,42.30
2023-09-27T16:11:02.306Z,43.50
2023-09-27T16:13:29.842Z,44.20
2023-09-27T16:15:57.582Z,45.20
2023-09-27T16:18:24.958Z,45.70
2023-09-27T16:20:52.709Z,46.50
2023-09-27T16:23:20.229Z,48.50
2023-09-27T16:25:48.066Z,49.10
2023-09-27T16:28:16.627Z,49.80
2023-09-27T16:30:44.421Z,49.80
2023-09-27T16:33:13.219Z,51.10
2023-09-27T16:35:41.344Z,51.50
2023-09-27T16:38:10.723Z,52.20
2023-09-27T16:40:40.178Z,52.30
2023-09-27T16:43:07.784Z,52.60
2023-09-27T16:45:37.826Z,53.30
2023-09-27T16:48:05.754Z,53.00
2023-09-27T16:50:33.247Z,53.50
2023-09-27T16:53:00.721Z,54.50
2023-09-27T16:55:28.320Z,55.00
2023-09-27T16:57:55.885Z,54.90
2023-09-27T17:00:24.536Z,55.50
2023-09-27T17:02:57.100Z,55.80
2023-09-27T17:05:27.850Z,56.20
2023-09-27T17:07:55.753Z,57.00
2023-09-27T17:10:23.881Z,56.90
2023-09-27T17:12:51.381Z,57.20
2023-09-27T17:15:20.895Z,57.90
2023-09-27T17:17:48.446Z,58.20
2023-09-27T17:20:16.169Z,58.40
2023-09-27T17:22:44.154Z,58.10
2023-09-27T17:25:12.499Z,58.60
2023-09-27T17:27:40.711Z,58.70
2023-09-27T17:30:08.890Z,58.80
2023-09-27T17:32:38.883Z,58.60
2023-09-27T17:35:07.295Z,59.10
2023-09-27T17:37:35.756Z,59.50
2023-09-27T17:40:10.466Z,59.50
2023-09-27T17:42:39.208Z,59.90
2023-09-27T17:45:09.391Z,60.30
2023-09-27T17:47:37.378Z,60.30
2023-09-27T17:50:05.130Z,60.20
2023-09-27T17:52:32.603Z,60.40
2023-09-27T17:54:59.921Z,60.10
2023-09-27T17:57:27.207Z,60.20
2023-09-27T17:59:54.591Z,60.00
2023-09-27T18:02:21.993Z,60.50
2023-09-27T18:04:49.434Z,60.10
2023-09-27T18:07:18.110Z,60.10
2023-09-27T18:09:45.454Z,60.50
2023-09-27T18:12:13.374Z,61.00
2023-09-27T18:14:40.771Z,61.50
2023-09-27T18:17:08.392Z,62.10
2023-09-27T18:19:35.696Z,61.40
2023-09-27T18:22:03.634Z,61.50
2023-09-27T18:24:31.008Z,62.20
2023-09-27T18:26:58.844Z,62.10
2023-09-27T18:29:26.345Z,62.90
2023-09-27T18:34:20.937Z,63.20
2023-09-27T18:36:49.424Z,62.50
2023-09-27T18:39:16.650Z,62.40
2023-09-27T18:41:44.462Z,62.90
2023-09-27T18:44:12.964Z,63.50
2023-09-27T18:46:41.946Z,64.50
2023-09-27T18:49:09.471Z,64.30
2023-09-27T18:51:36.938Z,64.00
2023-09-27T18:54:05.069Z,64.50
2023-09-27T18:56:32.708Z,64.90
2023-09-27T18:59:00.126Z,65.80
2023-09-27T19:01:28.741Z,66.40
2023-09-27T19:03:56.461Z,67.00
2023-09-27T19:06:25.219Z,67.60
2023-09-27T19:08:55.073Z,67.70
2023-09-27T19:11:22.660Z,67.90
2023-09-27T19:13:50.385Z,68.10
2023-09-27T19:16:17.820Z,68.50
2023-09-27T19:18:45.507Z,68.50
2023-09-27T19:21:13.471Z,68.00
2023-09-27T19:23:41.537Z,67.80
2023-09-27T19:26:13.192Z,67.80
2023-09-27T19:28:41.560Z,68.70
2023-09-27T19:31:10.071Z,68.80
2023-09-27T19:33:42.780Z,69.10
2023-09-27T19:36:21.120Z,68.70
2023-09-27T19:38:49.500Z,68.60
2023-09-27T19:41:16.998Z,69.00
2023-09-27T19:43:45.465Z,69.50
2023-09-27T19:46:13.123Z,69.30
2023-09-27T19:48:45.308Z,70.10
2023-09-27T19:51:23.680Z,70.90
2023-09-27T19:53:53.068Z,71.00
2023-09-27T19:56:22.465Z,71.10
2023-09-27T19:58:50.280Z,71.20
2023-09-27T20:01:38.414Z,71.50
2023-09-27T20:04:06.177Z,70.90
2023-09-27T20:06:37.617Z,71.20
2023-09-27T20:09:05.059Z,71.60
2023-09-27T20:11:32.435Z,72.30
2023-09-27T20:14:00.064Z,72.30
2023-09-27T20:16:28.873Z,72.40
2023-09-27T20:18:56.233Z,71.80
2023-09-27T20:21:23.586Z,71.60
2023-09-27T20:23:50.920Z,71.60
2023-09-27T20:26:18.247Z,72.00
2023-09-27T20:28:45.714Z,72.10
2023-09-27T20:31:15.067Z,72.40
2023-09-27T20:33:42.445Z,73.00
2023-09-27T20:36:13.833Z,73.30
2023-09-27T20:38:41.705Z,73.20
2023-09-27T20:41:12.375Z,73.30
2023-09-27T20:43:39.787Z,73.20
2023-09-27T20:46:14.858Z,73.60
2023-09-27T20:48:42.441Z,73.50
2023-09-27T20:51:10.902Z,73.30
2023-09-27T20:53:38.560Z,72.90
2023-09-27T20:56:06.943Z,72.60
2023-09-27T20:58:35.055Z,73.10
2023-09-27T21:01:07.926Z,73.90
2023-09-27T21:03:36.577Z,73.60
2023-09-27T21:06:05.162Z,73.90
2023-09-27T21:08:33.263Z,74.70
2023-09-27T21:11:00.582Z,75.40
2023-09-27T21:13:28.398Z,75.20
2023-09-27T21:15:55.778Z,75.20
2023-09-27T21:18:23.163Z,75.20
2023-09-27T21:20:50.469Z,75.70
2023-09-27T21:23:17.851Z,74.90
2023-09-27T21:25:45.145Z,75.20
2023-09-27T21:28:12.481Z,75.60
2023-09-27T21:30:39.773Z,75.10
2023-09-27T21:33:07.064Z,75.00
2023-09-27T21:35:34.487Z,75.30
2023-09-27T21:38:02.328Z,74.80
2023-09-27T21:40:29.648Z,74.70
2023-09-27T21:42:58.383Z,75.50
2023-09-27T21:45:25.706Z,75.40
2023-09-27T21:47:53.056Z,75.60
2023-09-27T21:50:20.396Z,75.20
2023-09-27T21:52:47.697Z,75.20
2023-09-27T21:55:15.071Z,74.80
2023-09-27T21:57:43.017Z,74.90
2023-09-27T22:00:20.876Z,75.20
2023-09-27T22:02:48.899Z,75.80
2023-09-27T22:05:16.393Z,76.00
2023-09-27T22:07:45.427Z,76.50
2023-09-27T22:10:12.836Z,76.50
2023-09-27T22:12:40.410Z,76.50
2023-09-27T22:15:10.655Z,76.60
2023-09-27T22:17:39.065Z,76.20
2023-09-27T22:20:15.689Z,76.10
2023-09-27T22:22:44.802Z,76.30
2023-09-27T22:25:14.940Z,76.10
2023-09-27T22:27:50.241Z,75.80
2023-09-27T22:30:17.524Z,76.00
2023-09-27T22:32:46.256Z,76.20
2023-09-27T22:35:23.518Z,76.40
2023-09-27T22:37:51.624Z,77.10
2023-09-27T22:40:21.145Z,77.60
2023-09-27T22:42:50.345Z,77.20
2023-09-27T22:45:29.157Z,76.10
2023-09-27T22:48:00.938Z,76.30
2023-09-27T22:50:31.924Z,77.30
2023-09-27T22:52:59.613Z,78.10
2023-09-27T22:55:30.277Z,78.50
2023-09-27T22:57:57.755Z,78.60
2023-09-27T23:00:26.318Z,78.70
2023-09-27T23:02:56.625Z,79.00
2023-09-27T23:05:34.201Z,79.00
2023-09-27T23:08:13.245Z,78.90
2023-09-27T23:10:41.337Z,79.10
2023-09-27T23:13:29.705Z,78.90
2023-09-27T23:15:58.488Z,78.80
2023-09-27T23:18:28.749Z,78.60
2023-09-27T23:21:00.312Z,78.30
2023-09-27T23:23:37.285Z,78.20
2023-09-27T23:26:04.622Z,78.30
2023-09-27T23:28:41.391Z,78.10
2023-09-27T23:31:10.002Z,77.60
2023-09-27T23:33:42.789Z,77.70
2023-09-27T23:36:25.095Z,77.80
2023-09-27T23:38:59.519Z,77.90
2023-09-27T23:41:31.760Z,77.50
2023-09-27T23:44:09.857Z,77.70
2023-09-27T23:46:41.049Z,78.00
2023-09-27T23:49:17.057Z,78.50
2023-09-27T23:51:44.483Z,79.50
2023-09-27T23:54:11.791Z,80.20
2023-09-27T23:56:39.947Z,80.90
2023-09-27T23:59:20.681Z,81.50
